sensor_id;sensor_type;location;lat;lon;timestamp;P1;durP1;ratioP1;P2;durP2;ratioP2
22967;SDS011;11650;48.106;-1.696;2023-03-31T00:01:17;83.40;;;11.73;;
22967;SDS011;11650;48.106;-1.696;2023-03-31T00:03:43;70.70;;;10.20;;
22967;SDS011;11650;48.106;-1.696;2023-03-31T00:06:09;80.00;;;11.67;;
22967;SDS011;11650;48.106;-1.696;2023-03-31T00:08:42;77.87;;;11.03;;
22967;SDS011;11650;48.106;-1.696;2023-03-31T00:11:08;62.73;;;9.87;;
22967;SDS011;11650;48.106;-1.696;2023-03-31T00:13:35;66.63;;;11.13;;
22967;SDS011;11650;48.106;-1.696;2023-03-31T00:16:06;53.87;;;9.10;;
22967;SDS011;11650;48.106;-1.696;2023-03-31T00:18:33;59.40;;;8.83;;
22967;SDS011;11650;48.106;-1.696;2023-03-31T00:21:07;48.43;;;7.87;;
22967;SDS011;11650;48.106;-1.696;2023-03-31T00:24:10;66.63;;;10.80;;
22967;SDS011;11650;48.106;-1.696;2023-03-31T00:26:35;73.07;;;11.73;;
22967;SDS011;11650;48.106;-1.696;2023-03-31T00:29:02;45.13;;;8.03;;
22967;SDS011;11650;48.106;-1.696;2023-03-31T00:31:29;55.67;;;8.80;;
22967;SDS011;11650;48.106;-1.696;2023-03-31T00:33:55;59.83;;;9.40;;
22967;SDS011;11650;48.106;-1.696;2023-03-31T00:36:21;74.23;;;10.50;;
22967;SDS011;11650;48.106;-1.696;2023-03-31T00:38:57;69.23;;;11.57;;
22967;SDS011;11650;48.106;-1.696;2023-03-31T00:41:26;61.00;;;9.47;;
22967;SDS011;11650;48.106;-1.696;2023-03-31T00:49:20;67.83;;;10.30;;
22967;SDS011;11650;48.106;-1.696;2023-03-31T00:51:55;60.57;;;10.80;;
22967;SDS011;11650;48.106;-1.696;2023-03-31T00:54:29;68.83;;;9.93;;
22967;SDS011;11650;48.106;-1.696;2023-03-31T00:56:57;77.93;;;11.43;;
22967;SDS011;11650;48.106;-1.696;2023-03-31T00:59:27;80.00;;;10.47;;
22967;SDS011;11650;48.106;-1.696;2023-03-31T01:01:55;71.67;;;10.27;;
22967;SDS011;11650;48.106;-1.696;2023-03-31T01:04:26;45.57;;;7.67;;
22967;SDS011;11650;48.106;-1.696;2023-03-31T01:06:59;89.73;;;13.40;;
22967;SDS011;11650;48.106;-1.696;2023-03-31T01:09:33;61.23;;;9.57;;
22967;SDS011;11650;48.106;-1.696;2023-03-31T01:12:00;74.10;;;12.30;;
22967;SDS011;11650;48.106;-1.696;2023-03-31T01:14:29;67.90;;;11.47;;
22967;SDS011;11650;48.106;-1.696;2023-03-31T01:16:55;63.93;;;11.10;;
22967;SDS011;11650;48.106;-1.696;2023-03-31T01:41:20;51.57;;;8.43;;
22967;SDS011;11650;48.106;-1.696;2023-03-31T01:46:36;67.30;;;9.47;;
22967;SDS011;11650;48.106;-1.696;2023-03-31T01:49:19;67.80;;;10.43;;
22967;SDS011;11650;48.106;-1.696;2023-03-31T01:52:01;66.50;;;10.50;;
22967;SDS011;11650;48.106;-1.696;2023-03-31T01:54:38;58.13;;;9.33;;
22967;SDS011;11650;48.106;-1.696;2023-03-31T01:57:15;64.77;;;9.83;;
22967;SDS011;11650;48.106;-1.696;2023-03-31T01:59:58;60.83;;;8.97;;
22967;SDS011;11650;48.106;-1.696;2023-03-31T02:02:28;45.63;;;8.13;;
22967;SDS011;11650;48.106;-1.696;2023-03-31T02:04:58;60.43;;;8.97;;
22967;SDS011;11650;48.106;-1.696;2023-03-31T02:07:34;36.33;;;6.23;;
22967;SDS011;11650;48.106;-1.696;2023-03-31T02:10:06;49.77;;;8.90;;
22967;SDS011;11650;48.106;-1.696;2023-03-31T02:12:35;55.93;;;9.43;;
22967;SDS011;11650;48.106;-1.696;2023-03-31T02:15:05;48.90;;;7.20;;
22967;SDS011;11650;48.106;-1.696;2023-03-31T02:17:34;50.50;;;8.40;;
22967;SDS011;11650;48.106;-1.696;2023-03-31T02:20:06;44.70;;;7.47;;
22967;SDS011;11650;48.106;-1.696;2023-03-31T02:22:36;48.33;;;8.30;;
22967;SDS011;11650;48.106;-1.696;2023-03-31T02:25:05;58.07;;;9.30;;
22967;SDS011;11650;48.106;-1.696;2023-03-31T02:27:41;58.00;;;9.03;;
22967;SDS011;11650;48.106;-1.696;2023-03-31T02:30:10;58.87;;;9.20;;
22967;SDS011;11650;48.106;-1.696;2023-03-31T02:32:39;57.87;;;9.77;;
22967;SDS011;11650;48.106;-1.696;2023-03-31T02:35:07;62.27;;;9.87;;
22967;SDS011;11650;48.106;-1.696;2023-03-31T02:37:36;30.50;;;5.87;;
22967;SDS011;11650;48.106;-1.696;2023-03-31T02:40:07;57.67;;;9.53;;
22967;SDS011;11650;48.106;-1.696;2023-03-31T02:42:39;34.73;;;6.10;;
22967;SDS011;11650;48.106;-1.696;2023-03-31T02:45:06;53.93;;;8.33;;
22967;SDS011;11650;48.106;-1.696;2023-03-31T02:47:57;45.87;;;6.87;;
22967;SDS011;11650;48.106;-1.696;2023-03-31T02:50:23;43.80;;;7.40;;
22967;SDS011;11650;48.106;-1.696;2023-03-31T02:53:00;43.17;;;7.17;;
22967;SDS011;11650;48.106;-1.696;2023-03-31T02:55:41;44.80;;;6.53;;
22967;SDS011;11650;48.106;-1.696;2023-03-31T02:58:41;48.73;;;7.37;;
22967;SDS011;11650;48.106;-1.696;2023-03-31T03:09:44;39.63;;;6.47;;
22967;SDS011;11650;48.106;-1.696;2023-03-31T03:15:27;41.80;;;6.90;;
22967;SDS011;11650;48.106;-1.696;2023-03-31T03:17:57;31.33;;;5.03;;
22967;SDS011;11650;48.106;-1.696;2023-03-31T03:20:23;34.73;;;6.43;;
22967;SDS011;11650;48.106;-1.696;2023-03-31T03:22:49;41.47;;;6.60;;
22967;SDS011;11650;48.106;-1.696;2023-03-31T03:25:15;34.27;;;6.40;;
22967;SDS011;11650;48.106;-1.696;2023-03-31T03:27:42;25.27;;;4.87;;
22967;SDS011;11650;48.106;-1.696;2023-03-31T03:30:08;33.27;;;5.33;;
22967;SDS011;11650;48.106;-1.696;2023-03-31T03:32:36;36.63;;;6.33;;
22967;SDS011;11650;48.106;-1.696;2023-03-31T03:35:03;26.20;;;4.70;;
22967;SDS011;11650;48.106;-1.696;2023-03-31T03:37:30;30.03;;;5.03;;
22967;SDS011;11650;48.106;-1.696;2023-03-31T03:39:56;50.23;;;7.00;;
22967;SDS011;11650;48.106;-1.696;2023-03-31T03:42:21;34.23;;;6.50;;
22967;SDS011;11650;48.106;-1.696;2023-03-31T03:44:47;31.70;;;4.97;;
22967;SDS011;11650;48.106;-1.696;2023-03-31T03:47:13;39.83;;;6.13;;
22967;SDS011;11650;48.106;-1.696;2023-03-31T03:49:39;35.57;;;6.03;;
22967;SDS011;11650;48.106;-1.696;2023-03-31T03:52:04;43.53;;;6.43;;
22967;SDS011;11650;48.106;-1.696;2023-03-31T03:54:30;33.93;;;6.17;;
22967;SDS011;11650;48.106;-1.696;2023-03-31T03:56:56;36.43;;;4.97;;
22967;SDS011;11650;48.106;-1.696;2023-03-31T03:59:22;29.37;;;5.47;;
22967;SDS011;11650;48.106;-1.696;2023-03-31T04:01:48;39.73;;;6.17;;
22967;SDS011;11650;48.106;-1.696;2023-03-31T04:04:14;42.63;;;7.03;;
22967;SDS011;11650;48.106;-1.696;2023-03-31T04:06:40;33.53;;;5.67;;
22967;SDS011;11650;48.106;-1.696;2023-03-31T04:09:06;41.17;;;7.47;;
22967;SDS011;11650;48.106;-1.696;2023-03-31T04:11:32;36.17;;;6.40;;
22967;SDS011;11650;48.106;-1.696;2023-03-31T04:13:59;46.50;;;6.83;;
22967;SDS011;11650;48.106;-1.696;2023-03-31T04:16:25;37.23;;;5.07;;
22967;SDS011;11650;48.106;-1.696;2023-03-31T04:18:51;46.70;;;7.17;;
22967;SDS011;11650;48.106;-1.696;2023-03-31T04:21:21;44.73;;;8.53;;
22967;SDS011;11650;48.106;-1.696;2023-03-31T04:23:48;30.20;;;5.57;;
22967;SDS011;11650;48.106;-1.696;2023-03-31T04:26:22;40.60;;;6.87;;
22967;SDS011;11650;48.106;-1.696;2023-03-31T04:28:58;37.10;;;4.70;;
22967;SDS011;11650;48.106;-1.696;2023-03-31T04:31:24;39.47;;;5.27;;
22967;SDS011;11650;48.106;-1.696;2023-03-31T04:33:51;38.90;;;6.17;;
22967;SDS011;11650;48.106;-1.696;2023-03-31T04:36:25;31.73;;;5.57;;
22967;SDS011;11650;48.106;-1.696;2023-03-31T04:38:50;37.03;;;6.70;;
22967;SDS011;11650;48.106;-1.696;2023-03-31T04:41:18;41.37;;;7.90;;
22967;SDS011;11650;48.106;-1.696;2023-03-31T04:43:47;33.37;;;5.53;;
22967;SDS011;11650;48.106;-1.696;2023-03-31T04:46:13;44.37;;;7.40;;
22967;SDS011;11650;48.106;-1.696;2023-03-31T04:48:39;44.10;;;7.10;;
22967;SDS011;11650;48.106;-1.696;2023-03-31T04:51:05;47.50;;;6.80;;
22967;SDS011;11650;48.106;-1.696;2023-03-31T04:53:31;42.43;;;6.53;;
22967;SDS011;11650;48.106;-1.696;2023-03-31T04:55:56;36.10;;;6.27;;
22967;SDS011;11650;48.106;-1.696;2023-03-31T04:58:22;40.27;;;6.47;;
22967;SDS011;11650;48.106;-1.696;2023-03-31T05:00:48;42.80;;;6.70;;
22967;SDS011;11650;48.106;-1.696;2023-03-31T05:03:13;30.30;;;5.93;;
22967;SDS011;11650;48.106;-1.696;2023-03-31T05:05:39;46.03;;;6.97;;
22967;SDS011;11650;48.106;-1.696;2023-03-31T05:08:05;34.53;;;6.30;;
22967;SDS011;11650;48.106;-1.696;2023-03-31T05:10:31;35.23;;;6.00;;
22967;SDS011;11650;48.106;-1.696;2023-03-31T05:12:57;32.23;;;5.53;;
22967;SDS011;11650;48.106;-1.696;2023-03-31T05:15:22;40.90;;;6.93;;
22967;SDS011;11650;48.106;-1.696;2023-03-31T05:17:49;32.10;;;5.40;;
22967;SDS011;11650;48.106;-1.696;2023-03-31T05:20:16;30.73;;;5.53;;
22967;SDS011;11650;48.106;-1.696;2023-03-31T05:22:43;31.33;;;5.93;;
22967;SDS011;11650;48.106;-1.696;2023-03-31T05:25:10;36.33;;;5.67;;
22967;SDS011;11650;48.106;-1.696;2023-03-31T05:27:42;28.50;;;5.80;;
22967;SDS011;11650;48.106;-1.696;2023-03-31T05:30:09;39.53;;;6.30;;
22967;SDS011;11650;48.106;-1.696;2023-03-31T05:32:35;36.77;;;5.60;;
22967;SDS011;11650;48.106;-1.696;2023-03-31T05:35:00;34.80;;;5.40;;
22967;SDS011;11650;48.106;-1.696;2023-03-31T05:37:26;44.30;;;6.13;;
22967;SDS011;11650;48.106;-1.696;2023-03-31T05:39:52;36.30;;;5.43;;
22967;SDS011;11650;48.106;-1.696;2023-03-31T05:42:18;42.00;;;6.43;;
22967;SDS011;11650;48.106;-1.696;2023-03-31T05:44:44;36.23;;;6.27;;
22967;SDS011;11650;48.106;-1.696;2023-03-31T05:47:10;41.93;;;7.23;;
22967;SDS011;11650;48.106;-1.696;2023-03-31T05:49:36;33.17;;;5.70;;
22967;SDS011;11650;48.106;-1.696;2023-03-31T05:52:02;23.37;;;3.80;;
22967;SDS011;11650;48.106;-1.696;2023-03-31T05:54:31;29.33;;;4.83;;
22967;SDS011;11650;48.106;-1.696;2023-03-31T05:56:57;40.43;;;6.17;;
22967;SDS011;11650;48.106;-1.696;2023-03-31T05:59:23;25.83;;;4.70;;
22967;SDS011;11650;48.106;-1.696;2023-03-31T06:01:48;23.03;;;4.20;;
22967;SDS011;11650;48.106;-1.696;2023-03-31T06:04:14;28.70;;;5.07;;
22967;SDS011;11650;48.106;-1.696;2023-03-31T06:06:40;22.93;;;4.10;;
22967;SDS011;11650;48.106;-1.696;2023-03-31T06:09:06;35.80;;;5.53;;
22967;SDS011;11650;48.106;-1.696;2023-03-31T06:11:32;19.70;;;3.90;;
22967;SDS011;11650;48.106;-1.696;2023-03-31T06:13:58;32.23;;;4.23;;
22967;SDS011;11650;48.106;-1.696;2023-03-31T06:16:24;37.13;;;5.93;;
22967;SDS011;11650;48.106;-1.696;2023-03-31T06:18:50;35.10;;;5.57;;
22967;SDS011;11650;48.106;-1.696;2023-03-31T06:21:17;36.67;;;6.03;;
22967;SDS011;11650;48.106;-1.696;2023-03-31T06:23:43;33.27;;;5.47;;
22967;SDS011;11650;48.106;-1.696;2023-03-31T06:26:10;30.10;;;5.33;;
22967;SDS011;11650;48.106;-1.696;2023-03-31T06:28:38;19.20;;;4.23;;
22967;SDS011;11650;48.106;-1.696;2023-03-31T06:31:05;27.30;;;4.87;;
22967;SDS011;11650;48.106;-1.696;2023-03-31T06:33:33;19.93;;;3.90;;
22967;SDS011;11650;48.106;-1.696;2023-03-31T06:35:59;23.87;;;3.77;;
22967;SDS011;11650;48.106;-1.696;2023-03-31T06:38:28;37.23;;;5.83;;
22967;SDS011;11650;48.106;-1.696;2023-03-31T06:40:53;37.13;;;6.30;;
22967;SDS011;11650;48.106;-1.696;2023-03-31T06:43:19;31.57;;;5.83;;
22967;SDS011;11650;48.106;-1.696;2023-03-31T06:45:45;40.37;;;5.80;;
22967;SDS011;11650;48.106;-1.696;2023-03-31T06:48:11;30.73;;;4.97;;
22967;SDS011;11650;48.106;-1.696;2023-03-31T06:50:38;29.83;;;4.93;;
22967;SDS011;11650;48.106;-1.696;2023-03-31T06:53:05;37.23;;;5.33;;
22967;SDS011;11650;48.106;-1.696;2023-03-31T06:55:32;34.50;;;6.47;;
22967;SDS011;11650;48.106;-1.696;2023-03-31T06:57:58;29.23;;;6.43;;
22967;SDS011;11650;48.106;-1.696;2023-03-31T07:00:24;34.03;;;4.93;;
22967;SDS011;11650;48.106;-1.696;2023-03-31T07:02:50;30.30;;;4.57;;
22967;SDS011;11650;48.106;-1.696;2023-03-31T07:05:16;22.67;;;4.47;;
22967;SDS011;11650;48.106;-1.696;2023-03-31T07:07:43;36.43;;;5.23;;
22967;SDS011;11650;48.106;-1.696;2023-03-31T07:10:09;24.90;;;3.77;;
22967;SDS011;11650;48.106;-1.696;2023-03-31T07:12:35;28.70;;;4.77;;
22967;SDS011;11650;48.106;-1.696;2023-03-31T07:15:01;44.27;;;6.40;;
22967;SDS011;11650;48.106;-1.696;2023-03-31T07:17:26;37.43;;;5.40;;
22967;SDS011;11650;48.106;-1.696;2023-03-31T07:19:52;25.67;;;5.07;;
22967;SDS011;11650;48.106;-1.696;2023-03-31T07:22:18;35.83;;;5.70;;
22967;SDS011;11650;48.106;-1.696;2023-03-31T07:24:43;34.30;;;6.20;;
22967;SDS011;11650;48.106;-1.696;2023-03-31T07:27:09;31.83;;;4.90;;
22967;SDS011;11650;48.106;-1.696;2023-03-31T07:29:35;36.17;;;6.33;;
22967;SDS011;11650;48.106;-1.696;2023-03-31T07:32:00;29.20;;;4.83;;
22967;SDS011;11650;48.106;-1.696;2023-03-31T07:34:26;27.27;;;4.73;;
22967;SDS011;11650;48.106;-1.696;2023-03-31T07:36:55;32.77;;;5.27;;
22967;SDS011;11650;48.106;-1.696;2023-03-31T07:39:21;37.67;;;5.97;;
22967;SDS011;11650;48.106;-1.696;2023-03-31T07:41:46;32.03;;;5.47;;
22967;SDS011;11650;48.106;-1.696;2023-03-31T07:44:12;28.00;;;4.17;;
22967;SDS011;11650;48.106;-1.696;2023-03-31T07:46:38;41.57;;;6.50;;
22967;SDS011;11650;48.106;-1.696;2023-03-31T07:49:04;39.00;;;6.57;;
22967;SDS011;11650;48.106;-1.696;2023-03-31T07:51:31;19.50;;;4.80;;
22967;SDS011;11650;48.106;-1.696;2023-03-31T07:53:59;32.07;;;4.37;;
22967;SDS011;11650;48.106;-1.696;2023-03-31T07:56:25;21.43;;;5.33;;
22967;SDS011;11650;48.106;-1.696;2023-03-31T07:58:50;31.90;;;5.33;;
22967;SDS011;11650;48.106;-1.696;2023-03-31T08:01:17;32.60;;;5.07;;
22967;SDS011;11650;48.106;-1.696;2023-03-31T08:03:45;39.37;;;5.83;;
22967;SDS011;11650;48.106;-1.696;2023-03-31T08:06:16;45.40;;;6.43;;
22967;SDS011;11650;48.106;-1.696;2023-03-31T08:08:43;41.33;;;6.33;;
22967;SDS011;11650;48.106;-1.696;2023-03-31T08:11:09;35.10;;;6.03;;
22967;SDS011;11650;48.106;-1.696;2023-03-31T08:13:35;21.20;;;3.70;;
22967;SDS011;11650;48.106;-1.696;2023-03-31T08:16:00;28.13;;;5.33;;
22967;SDS011;11650;48.106;-1.696;2023-03-31T08:18:27;24.23;;;4.17;;
22967;SDS011;11650;48.106;-1.696;2023-03-31T08:20:53;30.77;;;5.30;;
22967;SDS011;11650;48.106;-1.696;2023-03-31T08:23:18;34.57;;;6.67;;
22967;SDS011;11650;48.106;-1.696;2023-03-31T08:25:44;27.93;;;4.90;;
22967;SDS011;11650;48.106;-1.696;2023-03-31T08:28:09;34.47;;;5.60;;
22967;SDS011;11650;48.106;-1.696;2023-03-31T08:30:37;24.73;;;4.10;;
22967;SDS011;11650;48.106;-1.696;2023-03-31T08:33:06;32.33;;;5.33;;
22967;SDS011;11650;48.106;-1.696;2023-03-31T08:35:33;28.17;;;4.27;;
22967;SDS011;11650;48.106;-1.696;2023-03-31T08:37:59;29.73;;;4.40;;
22967;SDS011;11650;48.106;-1.696;2023-03-31T08:40:26;20.47;;;4.50;;
22967;SDS011;11650;48.106;-1.696;2023-03-31T08:42:56;27.30;;;4.63;;
22967;SDS011;11650;48.106;-1.696;2023-03-31T08:50:32;32.30;;;4.70;;
22967;SDS011;11650;48.106;-1.696;2023-03-31T08:53:03;23.37;;;4.67;;
22967;SDS011;11650;48.106;-1.696;2023-03-31T08:55:54;28.17;;;5.57;;
22967;SDS011;11650;48.106;-1.696;2023-03-31T09:03:30;24.13;;;4.53;;
22967;SDS011;11650;48.106;-1.696;2023-03-31T09:06:14;21.80;;;4.10;;
22967;SDS011;11650;48.106;-1.696;2023-03-31T09:08:46;29.30;;;4.07;;
22967;SDS011;11650;48.106;-1.696;2023-03-31T09:11:22;28.53;;;4.83;;
22967;SDS011;11650;48.106;-1.696;2023-03-31T09:16:38;21.30;;;3.80;;
22967;SDS011;11650;48.106;-1.696;2023-03-31T09:22:01;28.97;;;5.20;;
22967;SDS011;11650;48.106;-1.696;2023-03-31T09:24:35;33.57;;;5.77;;
22967;SDS011;11650;48.106;-1.696;2023-03-31T09:27:10;27.50;;;5.20;;
22967;SDS011;11650;48.106;-1.696;2023-03-31T09:34:49;22.03;;;3.80;;
22967;SDS011;11650;48.106;-1.696;2023-03-31T09:37:17;16.60;;;3.57;;
22967;SDS011;11650;48.106;-1.696;2023-03-31T09:39:43;29.50;;;4.20;;
22967;SDS011;11650;48.106;-1.696;2023-03-31T09:42:11;38.33;;;5.43;;
22967;SDS011;11650;48.106;-1.696;2023-03-31T09:47:13;26.00;;;4.97;;
22967;SDS011;11650;48.106;-1.696;2023-03-31T09:49:44;34.90;;;5.50;;
22967;SDS011;11650;48.106;-1.696;2023-03-31T09:54:54;28.13;;;4.77;;
22967;SDS011;11650;48.106;-1.696;2023-03-31T09:57:24;16.97;;;3.73;;
22967;SDS011;11650;48.106;-1.696;2023-03-31T09:59:52;23.83;;;4.40;;
22967;SDS011;11650;48.106;-1.696;2023-03-31T10:04:57;25.50;;;4.77;;
22967;SDS011;11650;48.106;-1.696;2023-03-31T10:07:23;30.90;;;4.70;;
22967;SDS011;11650;48.106;-1.696;2023-03-31T10:09:50;18.90;;;3.93;;
22967;SDS011;11650;48.106;-1.696;2023-03-31T10:12:18;17.33;;;3.87;;
22967;SDS011;11650;48.106;-1.696;2023-03-31T10:14:50;26.10;;;4.47;;
22967;SDS011;11650;48.106;-1.696;2023-03-31T10:17:18;25.10;;;3.67;;
22967;SDS011;11650;48.106;-1.696;2023-03-31T10:19:50;14.47;;;3.10;;
22967;SDS011;11650;48.106;-1.696;2023-03-31T10:24:47;21.73;;;3.27;;
22967;SDS011;11650;48.106;-1.696;2023-03-31T10:29:54;17.87;;;3.23;;
22967;SDS011;11650;48.106;-1.696;2023-03-31T10:32:26;20.53;;;3.97;;
22967;SDS011;11650;48.106;-1.696;2023-03-31T10:34:55;17.37;;;3.33;;
22967;SDS011;11650;48.106;-1.696;2023-03-31T10:37:25;17.90;;;3.77;;
22967;SDS011;11650;48.106;-1.696;2023-03-31T10:39:56;17.50;;;3.23;;
22967;SDS011;11650;48.106;-1.696;2023-03-31T10:42:29;20.97;;;4.57;;
22967;SDS011;11650;48.106;-1.696;2023-03-31T10:47:54;24.83;;;4.87;;
22967;SDS011;11650;48.106;-1.696;2023-03-31T10:50:25;22.40;;;4.17;;
22967;SDS011;11650;48.106;-1.696;2023-03-31T10:53:04;29.67;;;4.93;;
22967;SDS011;11650;48.106;-1.696;2023-03-31T10:55:55;20.90;;;3.90;;
22967;SDS011;11650;48.106;-1.696;2023-03-31T10:58:37;23.33;;;3.47;;
22967;SDS011;11650;48.106;-1.696;2023-03-31T11:01:20;22.87;;;4.87;;
22967;SDS011;11650;48.106;-1.696;2023-03-31T11:12:38;23.43;;;4.33;;
22967;SDS011;11650;48.106;-1.696;2023-03-31T11:36:47;19.50;;;3.80;;
22967;SDS011;11650;48.106;-1.696;2023-03-31T11:39:38;17.37;;;2.70;;
22967;SDS011;11650;48.106;-1.696;2023-03-31T11:42:36;13.43;;;2.80;;
22967;SDS011;11650;48.106;-1.696;2023-03-31T11:47:47;9.90;;;2.10;;
22967;SDS011;11650;48.106;-1.696;2023-03-31T11:50:20;8.80;;;1.77;;
22967;SDS011;11650;48.106;-1.696;2023-03-31T11:52:57;11.97;;;2.40;;
22967;SDS011;11650;48.106;-1.696;2023-03-31T11:55:27;17.27;;;3.10;;
22967;SDS011;11650;48.106;-1.696;2023-03-31T12:00:51;21.57;;;3.60;;
22967;SDS011;11650;48.106;-1.696;2023-03-31T12:03:34;21.00;;;3.57;;
22967;SDS011;11650;48.106;-1.696;2023-03-31T12:06:11;11.10;;;2.53;;
22967;SDS011;11650;48.106;-1.696;2023-03-31T12:11:45;22.10;;;4.33;;
22967;SDS011;11650;48.106;-1.696;2023-03-31T12:17:42;22.60;;;3.50;;
22967;SDS011;11650;48.106;-1.696;2023-03-31T12:20:48;18.40;;;3.00;;
22967;SDS011;11650;48.106;-1.696;2023-03-31T12:23:16;23.27;;;3.80;;
22967;SDS011;11650;48.106;-1.696;2023-03-31T12:26:05;19.83;;;4.43;;
22967;SDS011;11650;48.106;-1.696;2023-03-31T12:28:33;20.70;;;4.23;;
22967;SDS011;11650;48.106;-1.696;2023-03-31T12:31:11;17.97;;;3.03;;
22967;SDS011;11650;48.106;-1.696;2023-03-31T12:33:45;18.80;;;2.77;;
22967;SDS011;11650;48.106;-1.696;2023-03-31T12:51:01;17.03;;;3.07;;
22967;SDS011;11650;48.106;-1.696;2023-03-31T12:53:56;15.00;;;2.80;;
22967;SDS011;11650;48.106;-1.696;2023-03-31T12:59:31;15.57;;;2.77;;
22967;SDS011;11650;48.106;-1.696;2023-03-31T13:04:40;21.50;;;3.90;;
22967;SDS011;11650;48.106;-1.696;2023-03-31T13:07:33;17.70;;;2.80;;
22967;SDS011;11650;48.106;-1.696;2023-03-31T13:10:48;16.23;;;3.57;;
22967;SDS011;11650;48.106;-1.696;2023-03-31T13:12:55;20.97;;;3.67;;
22967;SDS011;11650;48.106;-1.696;2023-03-31T13:15:25;17.90;;;3.60;;
22967;SDS011;11650;48.106;-1.696;2023-03-31T13:17:59;14.43;;;3.30;;
22967;SDS011;11650;48.106;-1.696;2023-03-31T13:23:03;15.33;;;4.17;;
22967;SDS011;11650;48.106;-1.696;2023-03-31T13:25:43;11.00;;;2.40;;
22967;SDS011;11650;48.106;-1.696;2023-03-31T13:28:14;16.40;;;2.40;;
22967;SDS011;11650;48.106;-1.696;2023-03-31T13:33:26;14.40;;;2.80;;
22967;SDS011;11650;48.106;-1.696;2023-03-31T13:35:56;9.57;;;2.17;;
22967;SDS011;11650;48.106;-1.696;2023-03-31T13:38:40;6.90;;;1.87;;
22967;SDS011;11650;48.106;-1.696;2023-03-31T13:41:33;13.37;;;3.10;;
22967;SDS011;11650;48.106;-1.696;2023-03-31T13:52:47;20.37;;;3.10;;
22967;SDS011;11650;48.106;-1.696;2023-03-31T13:55:27;10.77;;;2.90;;
22967;SDS011;11650;48.106;-1.696;2023-03-31T13:58:37;16.73;;;3.17;;
22967;SDS011;11650;48.106;-1.696;2023-03-31T14:06:57;16.73;;;3.50;;
22967;SDS011;11650;48.106;-1.696;2023-03-31T14:09:32;11.53;;;2.70;;
22967;SDS011;11650;48.106;-1.696;2023-03-31T14:12:21;12.80;;;2.93;;
22967;SDS011;11650;48.106;-1.696;2023-03-31T14:15:01;9.37;;;2.33;;
22967;SDS011;11650;48.106;-1.696;2023-03-31T14:17:29;15.07;;;3.20;;
22967;SDS011;11650;48.106;-1.696;2023-03-31T14:22:54;7.87;;;1.80;;
22967;SDS011;11650;48.106;-1.696;2023-03-31T14:38:45;14.13;;;3.00;;
22967;SDS011;11650;48.106;-1.696;2023-03-31T14:41:14;6.20;;;1.37;;
22967;SDS011;11650;48.106;-1.696;2023-03-31T14:43:53;16.00;;;3.73;;
22967;SDS011;11650;48.106;-1.696;2023-03-31T14:46:21;11.57;;;2.33;;
22967;SDS011;11650;48.106;-1.696;2023-03-31T14:48:48;14.93;;;3.07;;
22967;SDS011;11650;48.106;-1.696;2023-03-31T14:51:33;14.47;;;2.60;;
22967;SDS011;11650;48.106;-1.696;2023-03-31T14:53:59;9.83;;;2.43;;
22967;SDS011;11650;48.106;-1.696;2023-03-31T14:56:32;13.57;;;2.93;;
22967;SDS011;11650;48.106;-1.696;2023-03-31T14:59:02;16.23;;;2.97;;
22967;SDS011;11650;48.106;-1.696;2023-03-31T15:01:29;14.20;;;2.57;;
22967;SDS011;11650;48.106;-1.696;2023-03-31T15:03:58;15.90;;;2.57;;
22967;SDS011;11650;48.106;-1.696;2023-03-31T15:06:34;16.80;;;3.03;;
22967;SDS011;11650;48.106;-1.696;2023-03-31T15:09:03;17.63;;;3.70;;
22967;SDS011;11650;48.106;-1.696;2023-03-31T15:11:29;8.30;;;1.90;;
22967;SDS011;11650;48.106;-1.696;2023-03-31T15:13:56;14.73;;;3.67;;
22967;SDS011;11650;48.106;-1.696;2023-03-31T15:16:31;13.27;;;2.47;;
22967;SDS011;11650;48.106;-1.696;2023-03-31T15:21:44;17.70;;;3.23;;
22967;SDS011;11650;48.106;-1.696;2023-03-31T15:24:11;12.93;;;2.93;;
22967;SDS011;11650;48.106;-1.696;2023-03-31T15:26:46;11.80;;;2.60;;
22967;SDS011;11650;48.106;-1.696;2023-03-31T15:29:19;15.80;;;2.40;;
22967;SDS011;11650;48.106;-1.696;2023-03-31T15:31:49;16.27;;;3.43;;
22967;SDS011;11650;48.106;-1.696;2023-03-31T15:34:19;19.90;;;3.73;;
22967;SDS011;11650;48.106;-1.696;2023-03-31T15:37:00;18.07;;;2.97;;
22967;SDS011;11650;48.106;-1.696;2023-03-31T15:39:30;14.37;;;2.73;;
22967;SDS011;11650;48.106;-1.696;2023-03-31T15:41:57;14.83;;;3.63;;
22967;SDS011;11650;48.106;-1.696;2023-03-31T15:44:27;14.87;;;3.07;;
22967;SDS011;11650;48.106;-1.696;2023-03-31T15:47:00;15.67;;;3.07;;
22967;SDS011;11650;48.106;-1.696;2023-03-31T15:49:32;12.27;;;2.50;;
22967;SDS011;11650;48.106;-1.696;2023-03-31T15:51:58;15.47;;;3.00;;
22967;SDS011;11650;48.106;-1.696;2023-03-31T15:54:33;17.60;;;3.10;;
22967;SDS011;11650;48.106;-1.696;2023-03-31T15:57:01;7.43;;;2.00;;
22967;SDS011;11650;48.106;-1.696;2023-03-31T15:59:30;15.70;;;3.20;;
22967;SDS011;11650;48.106;-1.696;2023-03-31T16:02:07;13.50;;;2.60;;
22967;SDS011;11650;48.106;-1.696;2023-03-31T16:04:37;15.87;;;2.80;;
22967;SDS011;11650;48.106;-1.696;2023-03-31T16:07:05;14.67;;;2.73;;
22967;SDS011;11650;48.106;-1.696;2023-03-31T16:09:48;10.97;;;2.70;;
22967;SDS011;11650;48.106;-1.696;2023-03-31T16:12:26;19.47;;;3.40;;
22967;SDS011;11650;48.106;-1.696;2023-03-31T16:15:00;16.00;;;2.97;;
22967;SDS011;11650;48.106;-1.696;2023-03-31T16:20:22;14.53;;;2.77;;
22967;SDS011;11650;48.106;-1.696;2023-03-31T16:22:56;17.60;;;3.83;;
22967;SDS011;11650;48.106;-1.696;2023-03-31T16:25:24;14.80;;;3.10;;
22967;SDS011;11650;48.106;-1.696;2023-03-31T16:27:55;10.83;;;2.30;;
22967;SDS011;11650;48.106;-1.696;2023-03-31T16:30:35;21.23;;;4.13;;
22967;SDS011;11650;48.106;-1.696;2023-03-31T16:33:04;21.63;;;3.73;;
22967;SDS011;11650;48.106;-1.696;2023-03-31T16:35:35;17.33;;;3.00;;
22967;SDS011;11650;48.106;-1.696;2023-03-31T16:38:06;14.97;;;3.13;;
22967;SDS011;11650;48.106;-1.696;2023-03-31T16:40:39;18.13;;;3.43;;
22967;SDS011;11650;48.106;-1.696;2023-03-31T16:45:45;17.90;;;3.30;;
22967;SDS011;11650;48.106;-1.696;2023-03-31T16:48:13;14.00;;;3.20;;
22967;SDS011;11650;48.106;-1.696;2023-03-31T16:50:40;23.10;;;4.17;;
22967;SDS011;11650;48.106;-1.696;2023-03-31T16:53:07;20.17;;;4.37;;
22967;SDS011;11650;48.106;-1.696;2023-03-31T16:55:33;18.10;;;2.83;;
22967;SDS011;11650;48.106;-1.696;2023-03-31T16:57:58;19.30;;;3.87;;
22967;SDS011;11650;48.106;-1.696;2023-03-31T17:00:27;19.40;;;3.50;;
22967;SDS011;11650;48.106;-1.696;2023-03-31T17:02:58;17.73;;;4.10;;
22967;SDS011;11650;48.106;-1.696;2023-03-31T17:05:25;15.87;;;3.37;;
22967;SDS011;11650;48.106;-1.696;2023-03-31T17:07:52;13.83;;;2.60;;
22967;SDS011;11650;48.106;-1.696;2023-03-31T17:10:18;14.50;;;2.97;;
22967;SDS011;11650;48.106;-1.696;2023-03-31T17:12:44;14.27;;;3.07;;
22967;SDS011;11650;48.106;-1.696;2023-03-31T17:15:10;11.83;;;2.57;;
22967;SDS011;11650;48.106;-1.696;2023-03-31T17:17:37;17.23;;;3.50;;
22967;SDS011;11650;48.106;-1.696;2023-03-31T17:20:03;18.83;;;3.20;;
22967;SDS011;11650;48.106;-1.696;2023-03-31T17:22:30;13.37;;;2.83;;
22967;SDS011;11650;48.106;-1.696;2023-03-31T17:24:56;19.27;;;3.53;;
22967;SDS011;11650;48.106;-1.696;2023-03-31T17:27:25;15.23;;;3.33;;
22967;SDS011;11650;48.106;-1.696;2023-03-31T17:29:53;17.17;;;2.67;;
22967;SDS011;11650;48.106;-1.696;2023-03-31T17:32:19;15.47;;;3.20;;
22967;SDS011;11650;48.106;-1.696;2023-03-31T17:34:46;15.93;;;2.53;;
22967;SDS011;11650;48.106;-1.696;2023-03-31T17:37:15;16.50;;;3.33;;
22967;SDS011;11650;48.106;-1.696;2023-03-31T17:39:42;13.90;;;2.57;;
22967;SDS011;11650;48.106;-1.696;2023-03-31T17:42:08;19.13;;;3.67;;
22967;SDS011;11650;48.106;-1.696;2023-03-31T17:44:35;13.73;;;2.97;;